< < Back
Terminal Aerodrome Forecast


Current Version              Previous Versions:   1  2  3  4  5  6  7  8  9  

Terminal Aerodrome Forecast

331
FTUS44 KMOB 301100
TAFMOB
TAF
KMOB 301131Z 3012/3112 01005KT P6SM FEW070 SCT200
     FM301500 35008KT P6SM SKC
     FM310300 34003KT P6SM SKC=

Latest METAR

700
SAUS80 KWBC 301500
MTRMOB
METAR KMOB 301456Z 01010KT 10SM FEW200 17/08 A3012 RMK AO2 SLP198
T01720078 51014


USA.gov is the U.S. government's official web portal to all federal, state and local government web resources and services.